Home   Weather   Lapland   Past weeks
Flag for Finland

Past Weather in Lapland, Finland — Yesterday and Last 2 Weeks

Currently: 43 °F. Sprinkles. Overcast. (Weather station: Kittila, Finland). See more current weather

Past Weather in Lapland — Graph

°F

Lapland Temperature Yesterday

Maximum temperature yesterday: 66 °F (at 4:50 pm)
Minimum temperature yesterday: 48 °F (at 3:20 am)
Average temperature yesterday: 57 °F

High & Low Weather Summary for the Past Weeks

 TemperatureHumidityPressure
High70 °F (May 25, 3:20 pm)100% (May 16, 12:20 pm)30.18 "Hg (May 16, 12:20 pm)
Low28 °F (May 19, 3:20 am)18% (May 24, 6:20 pm)29.21 "Hg (May 12, 6:20 am)
Average47 °F61%29.79 "Hg
* Reported May 12 6:20 am — May 27 6:50 am, Lapland. Weather by CustomWeather, © 2022

Note: Actual official high and low records may vary slightly from our data, if they occured in-between our weather recording intervals... More about our weather records

Lapland Weather History for the Previous 24 Hours

Scroll right to see more
 ConditionsComfort  
Time TempWeatherWind HumidityBarometerVisibility
6:50 am
Fri, May 27
43 °FLight rain. Overcast.13 mph87%29.50 "HgN/A
6:20 am45 °FSprinkles. Overcast.13 mph87%29.50 "HgN/A
5:50 am45 °FLight rain. Overcast.13 mph93%29.53 "HgN/A
5:20 am45 °FLight rain. Overcast.13 mph93%29.53 "HgN/A
4:50 am46 °FRain. Overcast.12 mph87%29.53 "HgN/A
4:20 am46 °FLight rain. Overcast.12 mph93%29.53 "HgN/A
3:50 am48 °FRain. Overcast.12 mph82%29.56 "HgN/A
3:20 am50 °FLight rain. Clear.13 mph71%29.56 "HgN/A
2:50 am52 °FSunny.13 mph62%29.56 "Hg10 mi
2:20 am54 °FSunny.10 mph51%29.56 "Hg10 mi
1:50 am54 °FSunny.8 mph44%29.56 "Hg10 mi
1:20 am54 °FSunny.6 mph41%29.56 "Hg10 mi
12:50 am54 °FSunny.6 mph41%29.56 "Hg10 mi
12:20 am55 °FSunny.5 mph38%29.56 "Hg10 mi
11:50 pm
Thu, May 26
55 °FSunny.6 mph38%29.56 "Hg10 mi
11:20 pm55 °FSunny.6 mph38%29.59 "Hg10 mi
10:20 pm59 °FSunny.8 mph31%29.59 "Hg10 mi
9:20 pm61 °FSunny.5 mph27%29.59 "Hg10 mi
7:50 pm64 °FPassing clouds.10 mph21%29.59 "HgN/A
7:20 pm64 °FPassing clouds.10 mph18%29.59 "HgN/A
6:50 pm64 °FPassing clouds.12 mph19%29.59 "HgN/A
6:20 pm64 °FPassing clouds.13 mph21%29.62 "HgN/A
5:50 pm64 °FPassing clouds.12 mph21%29.62 "HgN/A
5:20 pm64 °FPassing clouds.10 mph22%29.62 "HgN/A
4:50 pm66 °FPassing clouds.10 mph22%29.62 "HgN/A
4:20 pm64 °FPassing clouds.9 mph22%29.62 "HgN/A
3:50 pm64 °FPassing clouds.9 mph22%29.65 "HgN/A
3:20 pm64 °FPassing clouds.10 mph26%29.65 "HgN/A
2:50 pm64 °FPassing clouds.13 mph28%29.65 "HgN/A
2:20 pm64 °FPassing clouds.9 mph30%29.65 "HgN/A
1:50 pm64 °FPassing clouds.14 mph28%29.65 "HgN/A
1:20 pm63 °FPassing clouds.9 mph30%29.68 "HgN/A
12:50 pm63 °FPassing clouds.12 mph30%29.68 "HgN/A
11:50 am61 °FPassing clouds.12 mph34%29.68 "HgN/A
11:20 am61 °FPassing clouds.10 mph34%29.71 "HgN/A
10:20 am57 °FPassing clouds.8 mph41%29.71 "HgN/A
9:50 am55 °FPassing clouds.10 mph41%29.71 "HgN/A
9:20 am54 °FPassing clouds.9 mph44%29.71 "HgN/A
8:50 am54 °FSunny.7 mph44%29.71 "Hg10 mi
8:20 am52 °FPassing clouds.8 mph47%29.71 "HgN/A
Weather by CustomWeather, © 2022

See weather overview